sensor_id;sensor_type;location;lat;lon;timestamp;temperature;humidity
33903;DHT22;20194;50.950;5.346;2023-02-22T00:01:39;7.20;72.80
33903;DHT22;20194;50.950;5.346;2023-02-22T00:04:28;7.40;71.40
33903;DHT22;20194;50.950;5.346;2023-02-22T00:06:54;7.60;68.70
33903;DHT22;20194;50.950;5.346;2023-02-22T00:09:21;7.70;66.50
33903;DHT22;20194;50.950;5.346;2023-02-22T00:11:47;7.50;63.90
33903;DHT22;20194;50.950;5.346;2023-02-22T00:14:13;7.40;66.20
33903;DHT22;20194;50.950;5.346;2023-02-22T00:16:39;7.30;65.50
33903;DHT22;20194;50.950;5.346;2023-02-22T00:19:05;7.10;67.70
33903;DHT22;20194;50.950;5.346;2023-02-22T00:21:32;7.10;69.30
33903;DHT22;20194;50.950;5.346;2023-02-22T00:23:57;7.40;69.50
33903;DHT22;20194;50.950;5.346;2023-02-22T00:26:23;7.60;67.80
33903;DHT22;20194;50.950;5.346;2023-02-22T00:28:51;7.80;65.80
33903;DHT22;20194;50.950;5.346;2023-02-22T00:31:17;7.80;63.70
33903;DHT22;20194;50.950;5.346;2023-02-22T00:33:43;8.00;62.60
33903;DHT22;20194;50.950;5.346;2023-02-22T00:36:10;7.80;59.50
33903;DHT22;20194;50.950;5.346;2023-02-22T00:38:37;7.90;62.50
33903;DHT22;20194;50.950;5.346;2023-02-22T00:41:03;8.00;61.50
33903;DHT22;20194;50.950;5.346;2023-02-22T00:43:29;7.80;59.80
33903;DHT22;20194;50.950;5.346;2023-02-22T00:45:54;7.90;60.80
33903;DHT22;20194;50.950;5.346;2023-02-22T00:48:21;7.90;59.40
33903;DHT22;20194;50.950;5.346;2023-02-22T00:50:47;7.90;59.80
33903;DHT22;20194;50.950;5.346;2023-02-22T00:53:13;7.90;60.50
33903;DHT22;20194;50.950;5.346;2023-02-22T00:55:40;8.10;59.30
33903;DHT22;20194;50.950;5.346;2023-02-22T00:58:06;7.90;56.70
33903;DHT22;20194;50.950;5.346;2023-02-22T01:00:34;8.00;58.30
33903;DHT22;20194;50.950;5.346;2023-02-22T01:03:01;7.80;58.50
33903;DHT22;20194;50.950;5.346;2023-02-22T01:05:29;7.80;59.70
33903;DHT22;20194;50.950;5.346;2023-02-22T01:07:57;7.60;57.80
33903;DHT22;20194;50.950;5.346;2023-02-22T01:10:24;7.40;61.70
33903;DHT22;20194;50.950;5.346;2023-02-22T01:12:52;7.20;62.00
33903;DHT22;20194;50.950;5.346;2023-02-22T01:15:20;7.00;66.40
33903;DHT22;20194;50.950;5.346;2023-02-22T01:17:47;7.30;67.80
33903;DHT22;20194;50.950;5.346;2023-02-22T01:20:13;7.50;65.50
33903;DHT22;20194;50.950;5.346;2023-02-22T01:22:42;7.20;64.90
33903;DHT22;20194;50.950;5.346;2023-02-22T01:25:14;7.10;65.00
33903;DHT22;20194;50.950;5.346;2023-02-22T01:27:40;7.10;67.40
33903;DHT22;20194;50.950;5.346;2023-02-22T01:30:07;7.00;67.00
33903;DHT22;20194;50.950;5.346;2023-02-22T01:32:34;7.00;66.40
33903;DHT22;20194;50.950;5.346;2023-02-22T01:35:01;7.10;65.90
33903;DHT22;20194;50.950;5.346;2023-02-22T01:37:30;7.20;67.30
33903;DHT22;20194;50.950;5.346;2023-02-22T01:39:56;7.40;64.90
33903;DHT22;20194;50.950;5.346;2023-02-22T01:42:21;7.40;62.90
33903;DHT22;20194;50.950;5.346;2023-02-22T01:47:54;7.80;61.60
33903;DHT22;20194;50.950;5.346;2023-02-22T01:50:21;7.60;57.50
33903;DHT22;20194;50.950;5.346;2023-02-22T01:52:47;7.60;60.00
33903;DHT22;20194;50.950;5.346;2023-02-22T01:55:14;7.50;59.20
33903;DHT22;20194;50.950;5.346;2023-02-22T01:57:42;7.50;59.60
33903;DHT22;20194;50.950;5.346;2023-02-22T02:00:11;7.50;58.90
33903;DHT22;20194;50.950;5.346;2023-02-22T02:02:43;7.50;60.20
33903;DHT22;20194;50.950;5.346;2023-02-22T02:05:10;7.50;60.10
33903;DHT22;20194;50.950;5.346;2023-02-22T02:07:37;7.60;59.30
33903;DHT22;20194;50.950;5.346;2023-02-22T02:10:12;7.80;58.70
33903;DHT22;20194;50.950;5.346;2023-02-22T02:12:42;7.90;58.20
33903;DHT22;20194;50.950;5.346;2023-02-22T02:15:22;7.80;57.70
33903;DHT22;20194;50.950;5.346;2023-02-22T02:17:51;7.80;57.10
33903;DHT22;20194;50.950;5.346;2023-02-22T02:20:23;7.50;57.80
33903;DHT22;20194;50.950;5.346;2023-02-22T02:41:47;7.10;65.60
33903;DHT22;20194;50.950;5.346;2023-02-22T02:47:00;6.80;65.40
33903;DHT22;20194;50.950;5.346;2023-02-22T02:49:38;6.90;65.00
33903;DHT22;20194;50.950;5.346;2023-02-22T02:52:08;6.90;64.60
33903;DHT22;20194;50.950;5.346;2023-02-22T02:54:36;7.00;63.50
33903;DHT22;20194;50.950;5.346;2023-02-22T02:57:03;7.10;62.90
33903;DHT22;20194;50.950;5.346;2023-02-22T02:59:35;7.20;61.10
33903;DHT22;20194;50.950;5.346;2023-02-22T03:05:20;6.60;67.50
33903;DHT22;20194;50.950;5.346;2023-02-22T03:08:24;6.50;65.70
33903;DHT22;20194;50.950;5.346;2023-02-22T03:16:33;6.20;64.60
33903;DHT22;20194;50.950;5.346;2023-02-22T03:22:09;6.10;67.60
33903;DHT22;20194;50.950;5.346;2023-02-22T03:24:49;6.10;67.60
33903;DHT22;20194;50.950;5.346;2023-02-22T03:27:19;6.30;68.20
33903;DHT22;20194;50.950;5.346;2023-02-22T03:29:47;6.40;65.60
33903;DHT22;20194;50.950;5.346;2023-02-22T03:32:20;6.60;66.80
33903;DHT22;20194;50.950;5.346;2023-02-22T03:35:03;6.80;64.90
33903;DHT22;20194;50.950;5.346;2023-02-22T03:37:40;6.80;61.20
33903;DHT22;20194;50.950;5.346;2023-02-22T03:40:09;6.70;60.80
33903;DHT22;20194;50.950;5.346;2023-02-22T03:42:42;6.90;61.20
33903;DHT22;20194;50.950;5.346;2023-02-22T03:45:10;6.80;59.80
33903;DHT22;20194;50.950;5.346;2023-02-22T03:47:42;6.70;61.50
33903;DHT22;20194;50.950;5.346;2023-02-22T03:50:24;6.30;60.80
33903;DHT22;20194;50.950;5.346;2023-02-22T03:52:54;6.10;64.40
33903;DHT22;20194;50.950;5.346;2023-02-22T03:55:23;6.30;65.60
33903;DHT22;20194;50.950;5.346;2023-02-22T03:57:53;6.50;63.30
33903;DHT22;20194;50.950;5.346;2023-02-22T04:00:22;6.70;62.50
33903;DHT22;20194;50.950;5.346;2023-02-22T04:02:49;6.70;59.70
33903;DHT22;20194;50.950;5.346;2023-02-22T04:05:15;6.60;58.50
33903;DHT22;20194;50.950;5.346;2023-02-22T04:07:42;6.70;59.90
33903;DHT22;20194;50.950;5.346;2023-02-22T04:10:09;6.50;59.80
33903;DHT22;20194;50.950;5.346;2023-02-22T04:12:35;6.50;60.90
33903;DHT22;20194;50.950;5.346;2023-02-22T04:15:02;6.60;61.50
33903;DHT22;20194;50.950;5.346;2023-02-22T04:17:28;6.30;60.20
33903;DHT22;20194;50.950;5.346;2023-02-22T04:19:55;6.10;61.40
33903;DHT22;20194;50.950;5.346;2023-02-22T04:22:20;6.00;63.20
33903;DHT22;20194;50.950;5.346;2023-02-22T04:24:46;6.10;64.00
33903;DHT22;20194;50.950;5.346;2023-02-22T04:27:13;6.00;64.00
33903;DHT22;20194;50.950;5.346;2023-02-22T04:29:39;5.80;65.20
33903;DHT22;20194;50.950;5.346;2023-02-22T04:32:05;5.80;66.50
33903;DHT22;20194;50.950;5.346;2023-02-22T04:34:31;5.90;65.60
33903;DHT22;20194;50.950;5.346;2023-02-22T04:36:56;6.10;65.50
33903;DHT22;20194;50.950;5.346;2023-02-22T04:39:22;6.10;62.70
33903;DHT22;20194;50.950;5.346;2023-02-22T04:41:48;6.10;63.30
33903;DHT22;20194;50.950;5.346;2023-02-22T04:44:13;6.20;63.10
33903;DHT22;20194;50.950;5.346;2023-02-22T04:46:39;6.20;61.40
33903;DHT22;20194;50.950;5.346;2023-02-22T04:49:05;6.10;61.20
33903;DHT22;20194;50.950;5.346;2023-02-22T04:51:31;6.10;62.70
33903;DHT22;20194;50.950;5.346;2023-02-22T04:53:57;6.10;63.50
33903;DHT22;20194;50.950;5.346;2023-02-22T04:56:22;6.10;63.70
33903;DHT22;20194;50.950;5.346;2023-02-22T04:58:48;6.00;61.90
33903;DHT22;20194;50.950;5.346;2023-02-22T05:01:15;6.00;62.50
33903;DHT22;20194;50.950;5.346;2023-02-22T05:03:41;5.90;61.90
33903;DHT22;20194;50.950;5.346;2023-02-22T05:06:07;5.90;63.50
33903;DHT22;20194;50.950;5.346;2023-02-22T05:08:33;5.80;64.10
33903;DHT22;20194;50.950;5.346;2023-02-22T05:10:59;5.90;65.90
33903;DHT22;20194;50.950;5.346;2023-02-22T05:13:25;5.90;65.20
33903;DHT22;20194;50.950;5.346;2023-02-22T05:15:50;6.00;64.30
33903;DHT22;20194;50.950;5.346;2023-02-22T05:18:16;6.10;63.70
33903;DHT22;20194;50.950;5.346;2023-02-22T05:20:42;6.20;62.10
33903;DHT22;20194;50.950;5.346;2023-02-22T05:23:08;6.40;60.60
33903;DHT22;20194;50.950;5.346;2023-02-22T05:25:34;6.40;58.60
33903;DHT22;20194;50.950;5.346;2023-02-22T05:28:02;6.40;58.30
33903;DHT22;20194;50.950;5.346;2023-02-22T05:30:31;6.30;59.40
33903;DHT22;20194;50.950;5.346;2023-02-22T05:32:58;6.40;59.40
33903;DHT22;20194;50.950;5.346;2023-02-22T05:35:25;6.40;57.50
33903;DHT22;20194;50.950;5.346;2023-02-22T05:37:51;6.50;58.10
33903;DHT22;20194;50.950;5.346;2023-02-22T05:40:20;6.50;57.00
33903;DHT22;20194;50.950;5.346;2023-02-22T05:42:46;6.50;56.70
33903;DHT22;20194;50.950;5.346;2023-02-22T05:45:13;6.50;56.60
33903;DHT22;20194;50.950;5.346;2023-02-22T05:47:39;6.50;56.50
33903;DHT22;20194;50.950;5.346;2023-02-22T05:50:05;6.50;55.60
33903;DHT22;20194;50.950;5.346;2023-02-22T05:52:31;6.60;55.80
33903;DHT22;20194;50.950;5.346;2023-02-22T05:54:57;6.60;55.20
33903;DHT22;20194;50.950;5.346;2023-02-22T05:57:23;6.60;54.80
33903;DHT22;20194;50.950;5.346;2023-02-22T05:59:48;6.60;54.80
33903;DHT22;20194;50.950;5.346;2023-02-22T06:02:14;6.70;54.10
33903;DHT22;20194;50.950;5.346;2023-02-22T06:04:44;6.80;53.60
33903;DHT22;20194;50.950;5.346;2023-02-22T06:07:10;6.70;54.00
33903;DHT22;20194;50.950;5.346;2023-02-22T06:09:36;6.90;53.50
33903;DHT22;20194;50.950;5.346;2023-02-22T06:12:02;6.90;51.80
33903;DHT22;20194;50.950;5.346;2023-02-22T06:14:28;6.90;52.10
33903;DHT22;20194;50.950;5.346;2023-02-22T06:16:54;6.90;51.40
33903;DHT22;20194;50.950;5.346;2023-02-22T06:19:21;6.70;52.20
33903;DHT22;20194;50.950;5.346;2023-02-22T06:21:51;6.80;53.20
33903;DHT22;20194;50.950;5.346;2023-02-22T06:24:17;6.80;52.70
33903;DHT22;20194;50.950;5.346;2023-02-22T06:26:43;6.60;52.60
33903;DHT22;20194;50.950;5.346;2023-02-22T06:29:08;6.60;53.00
33903;DHT22;20194;50.950;5.346;2023-02-22T06:31:34;6.40;54.70
33903;DHT22;20194;50.950;5.346;2023-02-22T06:34:01;6.50;56.00
33903;DHT22;20194;50.950;5.346;2023-02-22T06:36:26;6.60;54.50
33903;DHT22;20194;50.950;5.346;2023-02-22T06:38:52;6.70;52.80
33903;DHT22;20194;50.950;5.346;2023-02-22T06:41:18;6.80;53.20
33903;DHT22;20194;50.950;5.346;2023-02-22T06:43:46;6.90;51.90
33903;DHT22;20194;50.950;5.346;2023-02-22T06:46:12;7.00;50.50
33903;DHT22;20194;50.950;5.346;2023-02-22T06:48:37;7.10;49.30
33903;DHT22;20194;50.950;5.346;2023-02-22T06:51:06;7.20;48.50
33903;DHT22;20194;50.950;5.346;2023-02-22T06:53:33;7.20;47.90
33903;DHT22;20194;50.950;5.346;2023-02-22T06:55:58;7.20;46.70
33903;DHT22;20194;50.950;5.346;2023-02-22T06:58:24;7.20;46.10
33903;DHT22;20194;50.950;5.346;2023-02-22T07:00:51;7.20;45.90
33903;DHT22;20194;50.950;5.346;2023-02-22T07:03:17;7.20;46.00
33903;DHT22;20194;50.950;5.346;2023-02-22T07:05:43;7.10;45.10
33903;DHT22;20194;50.950;5.346;2023-02-22T07:08:09;7.20;46.50
33903;DHT22;20194;50.950;5.346;2023-02-22T07:10:36;7.20;47.10
33903;DHT22;20194;50.950;5.346;2023-02-22T07:13:03;7.20;45.60
33903;DHT22;20194;50.950;5.346;2023-02-22T07:15:30;7.10;45.70
33903;DHT22;20194;50.950;5.346;2023-02-22T07:17:57;7.10;46.50
33903;DHT22;20194;50.950;5.346;2023-02-22T07:20:24;7.00;47.30
33903;DHT22;20194;50.950;5.346;2023-02-22T07:22:50;7.10;48.30
33903;DHT22;20194;50.950;5.346;2023-02-22T07:25:16;7.20;47.20
33903;DHT22;20194;50.950;5.346;2023-02-22T07:27:43;7.20;46.50
33903;DHT22;20194;50.950;5.346;2023-02-22T07:30:26;7.20;47.00
33903;DHT22;20194;50.950;5.346;2023-02-22T07:32:56;7.30;48.00
33903;DHT22;20194;50.950;5.346;2023-02-22T07:35:27;7.30;47.90
33903;DHT22;20194;50.950;5.346;2023-02-22T07:37:53;7.30;48.10
33903;DHT22;20194;50.950;5.346;2023-02-22T07:40:20;7.30;48.00
33903;DHT22;20194;50.950;5.346;2023-02-22T07:42:53;7.30;46.90
33903;DHT22;20194;50.950;5.346;2023-02-22T07:45:21;7.20;47.70
33903;DHT22;20194;50.950;5.346;2023-02-22T07:47:47;6.90;50.10
33903;DHT22;20194;50.950;5.346;2023-02-22T07:50:17;6.90;51.80
33903;DHT22;20194;50.950;5.346;2023-02-22T07:52:47;6.80;52.30
33903;DHT22;20194;50.950;5.346;2023-02-22T07:55:20;6.90;54.30
33903;DHT22;20194;50.950;5.346;2023-02-22T07:57:47;7.10;52.80
33903;DHT22;20194;50.950;5.346;2023-02-22T08:00:15;7.10;51.80
33903;DHT22;20194;50.950;5.346;2023-02-22T08:02:42;7.10;50.30
33903;DHT22;20194;50.950;5.346;2023-02-22T08:05:09;7.00;52.10
33903;DHT22;20194;50.950;5.346;2023-02-22T08:07:36;7.10;51.20
33903;DHT22;20194;50.950;5.346;2023-02-22T08:10:03;7.10;51.20
33903;DHT22;20194;50.950;5.346;2023-02-22T08:12:32;7.20;50.80
33903;DHT22;20194;50.950;5.346;2023-02-22T08:14:58;7.30;49.70
33903;DHT22;20194;50.950;5.346;2023-02-22T08:17:23;7.20;50.10
33903;DHT22;20194;50.950;5.346;2023-02-22T08:19:49;7.10;50.00
33903;DHT22;20194;50.950;5.346;2023-02-22T08:22:15;7.00;52.30
33903;DHT22;20194;50.950;5.346;2023-02-22T08:24:41;6.90;53.20
33903;DHT22;20194;50.950;5.346;2023-02-22T08:27:07;7.00;54.40
33903;DHT22;20194;50.950;5.346;2023-02-22T08:29:33;7.00;52.70
33903;DHT22;20194;50.950;5.346;2023-02-22T08:32:02;7.20;52.60
33903;DHT22;20194;50.950;5.346;2023-02-22T08:34:27;7.20;52.70
33903;DHT22;20194;50.950;5.346;2023-02-22T08:36:54;7.30;51.50
33903;DHT22;20194;50.950;5.346;2023-02-22T08:39:20;7.50;50.70
33903;DHT22;20194;50.950;5.346;2023-02-22T08:41:46;7.30;51.00
33903;DHT22;20194;50.950;5.346;2023-02-22T08:44:12;7.40;51.30
33903;DHT22;20194;50.950;5.346;2023-02-22T08:46:37;7.60;50.80
33903;DHT22;20194;50.950;5.346;2023-02-22T08:49:04;7.60;50.10
33903;DHT22;20194;50.950;5.346;2023-02-22T08:51:35;7.90;50.00
33903;DHT22;20194;50.950;5.346;2023-02-22T08:54:02;8.00;47.70
33903;DHT22;20194;50.950;5.346;2023-02-22T08:56:28;8.10;46.90
33903;DHT22;20194;50.950;5.346;2023-02-22T08:58:55;8.20;45.40
33903;DHT22;20194;50.950;5.346;2023-02-22T09:01:22;8.30;43.90
33903;DHT22;20194;50.950;5.346;2023-02-22T09:03:49;8.40;42.40
33903;DHT22;20194;50.950;5.346;2023-02-22T09:06:16;8.30;44.90
33903;DHT22;20194;50.950;5.346;2023-02-22T09:08:42;8.40;44.90
33903;DHT22;20194;50.950;5.346;2023-02-22T09:11:08;8.70;43.60
33903;DHT22;20194;50.950;5.346;2023-02-22T09:13:33;9.00;41.70
33903;DHT22;20194;50.950;5.346;2023-02-22T09:15:59;9.20;38.00
33903;DHT22;20194;50.950;5.346;2023-02-22T09:18:26;9.30;36.70
33903;DHT22;20194;50.950;5.346;2023-02-22T09:20:53;9.50;36.30
33903;DHT22;20194;50.950;5.346;2023-02-22T09:23:19;9.70;33.90
33903;DHT22;20194;50.950;5.346;2023-02-22T09:25:48;9.80;30.00
33903;DHT22;20194;50.950;5.346;2023-02-22T09:28:14;9.60;28.70
33903;DHT22;20194;50.950;5.346;2023-02-22T09:30:41;9.60;29.70
33903;DHT22;20194;50.950;5.346;2023-02-22T09:33:12;9.60;31.10
33903;DHT22;20194;50.950;5.346;2023-02-22T09:35:39;9.90;29.30
33903;DHT22;20194;50.950;5.346;2023-02-22T09:38:15;10.20;27.00
33903;DHT22;20194;50.950;5.346;2023-02-22T09:40:45;10.20;26.20
33903;DHT22;20194;50.950;5.346;2023-02-22T09:45:59;10.70;25.50
33903;DHT22;20194;50.950;5.346;2023-02-22T09:48:29;10.70;21.90
33903;DHT22;20194;50.950;5.346;2023-02-22T09:50:58;10.70;21.40
33903;DHT22;20194;50.950;5.346;2023-02-22T09:53:37;10.70;21.90
33903;DHT22;20194;50.950;5.346;2023-02-22T09:56:09;10.50;22.70
33903;DHT22;20194;50.950;5.346;2023-02-22T09:58:39;10.80;24.80
33903;DHT22;20194;50.950;5.346;2023-02-22T10:01:15;10.90;23.00
33903;DHT22;20194;50.950;5.346;2023-02-22T10:06:36;10.80;20.80
33903;DHT22;20194;50.950;5.346;2023-02-22T10:09:03;10.70;20.70
33903;DHT22;20194;50.950;5.346;2023-02-22T10:11:59;10.90;22.80
33903;DHT22;20194;50.950;5.346;2023-02-22T10:14:48;10.90;22.10
33903;DHT22;20194;50.950;5.346;2023-02-22T10:25:22;11.10;20.30
33903;DHT22;20194;50.950;5.346;2023-02-22T10:30:43;11.20;22.50
33903;DHT22;20194;50.950;5.346;2023-02-22T10:35:40;11.80;20.90
33903;DHT22;20194;50.950;5.346;2023-02-22T10:43:42;12.30;14.20
33903;DHT22;20194;50.950;5.346;2023-02-22T10:46:12;12.50;12.30
33903;DHT22;20194;50.950;5.346;2023-02-22T10:48:41;12.40;7.10
33903;DHT22;20194;50.950;5.346;2023-02-22T10:51:09;12.50;12.20
33903;DHT22;20194;50.950;5.346;2023-02-22T10:53:36;12.60;9.60
33903;DHT22;20194;50.950;5.346;2023-02-22T10:56:20;12.60;8.00
33903;DHT22;20194;50.950;5.346;2023-02-22T11:04:14;12.70;8.60
33903;DHT22;20194;50.950;5.346;2023-02-22T11:06:42;12.80;8.60
33903;DHT22;20194;50.950;5.346;2023-02-22T11:09:20;12.80;10.20
33903;DHT22;20194;50.950;5.346;2023-02-22T11:12:15;13.00;8.90
33903;DHT22;20194;50.950;5.346;2023-02-22T11:14:35;13.10;9.00
33903;DHT22;20194;50.950;5.346;2023-02-22T11:17:06;13.20;8.20
33903;DHT22;20194;50.950;5.346;2023-02-22T11:19:32;13.20;3.70
33903;DHT22;20194;50.950;5.346;2023-02-22T11:22:12;13.30;6.80
33903;DHT22;20194;50.950;5.346;2023-02-22T11:24:55;13.40;6.70
33903;DHT22;20194;50.950;5.346;2023-02-22T11:30:27;13.50;2.80
33903;DHT22;20194;50.950;5.346;2023-02-22T11:33:10;13.50;1.00
33903;DHT22;20194;50.950;5.346;2023-02-22T11:36:06;13.40;1.00
33903;DHT22;20194;50.950;5.346;2023-02-22T11:38:37;13.40;1.00
33903;DHT22;20194;50.950;5.346;2023-02-22T11:41:31;13.40;1.00
33903;DHT22;20194;50.950;5.346;2023-02-22T11:44:11;13.40;1.00
33903;DHT22;20194;50.950;5.346;2023-02-22T11:46:40;13.40;1.00
33903;DHT22;20194;50.950;5.346;2023-02-22T11:49:11;13.50;1.00
33903;DHT22;20194;50.950;5.346;2023-02-22T12:08:46;13.10;2.10
33903;DHT22;20194;50.950;5.346;2023-02-22T12:11:32;13.10;5.00
33903;DHT22;20194;50.950;5.346;2023-02-22T12:19:32;12.60;18.50
33903;DHT22;20194;50.950;5.346;2023-02-22T12:22:09;12.60;21.90
33903;DHT22;20194;50.950;5.346;2023-02-22T12:24:40;12.70;23.60
33903;DHT22;20194;50.950;5.346;2023-02-22T12:27:29;12.70;24.30
33903;DHT22;20194;50.950;5.346;2023-02-22T12:30:04;12.80;20.60
33903;DHT22;20194;50.950;5.346;2023-02-22T12:32:47;12.70;21.80
33903;DHT22;20194;50.950;5.346;2023-02-22T12:35:24;12.50;17.80
33903;DHT22;20194;50.950;5.346;2023-02-22T12:40:26;12.40;21.20
33903;DHT22;20194;50.950;5.346;2023-02-22T12:43:17;12.20;23.70
33903;DHT22;20194;50.950;5.346;2023-02-22T12:54:29;11.70;38.40
33903;DHT22;20194;50.950;5.346;2023-02-22T12:57:08;11.60;43.60
33903;DHT22;20194;50.950;5.346;2023-02-22T12:59:44;11.50;46.30
33903;DHT22;20194;50.950;5.346;2023-02-22T13:02:21;11.50;50.00
33903;DHT22;20194;50.950;5.346;2023-02-22T13:04:49;11.40;50.10
33903;DHT22;20194;50.950;5.346;2023-02-22T13:21:46;11.40;52.20
33903;DHT22;20194;50.950;5.346;2023-02-22T13:24:31;11.40;53.30
33903;DHT22;20194;50.950;5.346;2023-02-22T13:27:12;11.30;53.90
33903;DHT22;20194;50.950;5.346;2023-02-22T13:29:43;11.40;54.30
33903;DHT22;20194;50.950;5.346;2023-02-22T13:32:32;11.40;54.30
33903;DHT22;20194;50.950;5.346;2023-02-22T13:41:32;11.60;51.50
33903;DHT22;20194;50.950;5.346;2023-02-22T13:47:09;11.60;52.30
33903;DHT22;20194;50.950;5.346;2023-02-22T13:52:08;11.70;51.60
33903;DHT22;20194;50.950;5.346;2023-02-22T13:54:42;11.60;50.70
33903;DHT22;20194;50.950;5.346;2023-02-22T13:57:31;11.50;50.80
33903;DHT22;20194;50.950;5.346;2023-02-22T14:10:55;11.20;55.00
33903;DHT22;20194;50.950;5.346;2023-02-22T14:13:22;11.10;56.60
33903;DHT22;20194;50.950;5.346;2023-02-22T14:18:40;11.20;56.30
33903;DHT22;20194;50.950;5.346;2023-02-22T14:26:26;12.00;47.40
33903;DHT22;20194;50.950;5.346;2023-02-22T14:31:32;11.50;51.50
33903;DHT22;20194;50.950;5.346;2023-02-22T14:39:37;11.40;54.20
33903;DHT22;20194;50.950;5.346;2023-02-22T14:42:09;11.40;54.60
33903;DHT22;20194;50.950;5.346;2023-02-22T14:47:29;11.30;54.90
33903;DHT22;20194;50.950;5.346;2023-02-22T14:50:04;11.20;55.50
33903;DHT22;20194;50.950;5.346;2023-02-22T14:52:34;11.10;55.60
33903;DHT22;20194;50.950;5.346;2023-02-22T14:55:27;11.10;56.00
33903;DHT22;20194;50.950;5.346;2023-02-22T14:58:04;11.10;57.00
33903;DHT22;20194;50.950;5.346;2023-02-22T15:00:41;11.20;56.10
33903;DHT22;20194;50.950;5.346;2023-02-22T15:03:36;11.20;57.00
33903;DHT22;20194;50.950;5.346;2023-02-22T15:06:40;11.30;56.80
33903;DHT22;20194;50.950;5.346;2023-02-22T15:09:11;11.20;56.20
33903;DHT22;20194;50.950;5.346;2023-02-22T15:11:38;11.20;56.40
33903;DHT22;20194;50.950;5.346;2023-02-22T15:14:20;11.20;56.80
33903;DHT22;20194;50.950;5.346;2023-02-22T15:16:49;11.20;57.80
33903;DHT22;20194;50.950;5.346;2023-02-22T15:19:21;11.30;56.50
33903;DHT22;20194;50.950;5.346;2023-02-22T15:21:51;11.20;56.10
33903;DHT22;20194;50.950;5.346;2023-02-22T15:24:29;11.10;57.10
33903;DHT22;20194;50.950;5.346;2023-02-22T15:27:05;11.10;57.80
33903;DHT22;20194;50.950;5.346;2023-02-22T15:29:36;11.00;56.50
33903;DHT22;20194;50.950;5.346;2023-02-22T15:32:11;11.00;56.70
33903;DHT22;20194;50.950;5.346;2023-02-22T15:34:42;11.00;57.60
33903;DHT22;20194;50.950;5.346;2023-02-22T15:37:20;11.00;57.30
33903;DHT22;20194;50.950;5.346;2023-02-22T15:39:50;11.00;58.10
33903;DHT22;20194;50.950;5.346;2023-02-22T15:42:24;11.00;57.40
33903;DHT22;20194;50.950;5.346;2023-02-22T15:44:52;11.00;58.70
33903;DHT22;20194;50.950;5.346;2023-02-22T15:47:27;11.00;58.40
33903;DHT22;20194;50.950;5.346;2023-02-22T15:50:28;11.00;57.80
33903;DHT22;20194;50.950;5.346;2023-02-22T15:55:43;11.00;58.30
33903;DHT22;20194;50.950;5.346;2023-02-22T15:58:18;11.00;59.00
33903;DHT22;20194;50.950;5.346;2023-02-22T16:01:00;11.00;57.70
33903;DHT22;20194;50.950;5.346;2023-02-22T16:03:50;11.00;59.70
33903;DHT22;20194;50.950;5.346;2023-02-22T16:06:26;11.00;58.80
33903;DHT22;20194;50.950;5.346;2023-02-22T16:08:54;11.00;59.40
33903;DHT22;20194;50.950;5.346;2023-02-22T16:11:32;10.90;58.60
33903;DHT22;20194;50.950;5.346;2023-02-22T16:14:02;10.90;59.40
33903;DHT22;20194;50.950;5.346;2023-02-22T16:16:37;10.90;59.30
33903;DHT22;20194;50.950;5.346;2023-02-22T16:19:23;10.80;60.40
33903;DHT22;20194;50.950;5.346;2023-02-22T16:21:56;10.80;61.20
33903;DHT22;20194;50.950;5.346;2023-02-22T16:24:25;10.80;61.80
33903;DHT22;20194;50.950;5.346;2023-02-22T16:27:22;10.90;61.80
33903;DHT22;20194;50.950;5.346;2023-02-22T16:32:27;10.90;60.90
33903;DHT22;20194;50.950;5.346;2023-02-22T16:34:52;10.90;61.00
33903;DHT22;20194;50.950;5.346;2023-02-22T16:37:22;11.00;60.50
33903;DHT22;20194;50.950;5.346;2023-02-22T16:39:48;11.00;58.60
33903;DHT22;20194;50.950;5.346;2023-02-22T16:42:18;11.00;59.60
33903;DHT22;20194;50.950;5.346;2023-02-22T16:44:50;11.00;59.40
33903;DHT22;20194;50.950;5.346;2023-02-22T16:47:17;10.90;58.50
33903;DHT22;20194;50.950;5.346;2023-02-22T16:49:43;10.90;60.10
33903;DHT22;20194;50.950;5.346;2023-02-22T16:52:09;10.90;60.90
33903;DHT22;20194;50.950;5.346;2023-02-22T16:54:42;10.90;59.40
33903;DHT22;20194;50.950;5.346;2023-02-22T16:57:16;10.80;62.00
33903;DHT22;20194;50.950;5.346;2023-02-22T16:59:44;10.70;62.40
33903;DHT22;20194;50.950;5.346;2023-02-22T17:02:13;10.70;63.10
33903;DHT22;20194;50.950;5.346;2023-02-22T17:04:40;10.60;63.50
33903;DHT22;20194;50.950;5.346;2023-02-22T17:07:06;10.60;64.30
33903;DHT22;20194;50.950;5.346;2023-02-22T17:09:34;10.60;64.80
33903;DHT22;20194;50.950;5.346;2023-02-22T17:12:00;10.60;64.70
33903;DHT22;20194;50.950;5.346;2023-02-22T17:14:32;10.60;64.50
33903;DHT22;20194;50.950;5.346;2023-02-22T17:16:58;10.70;64.40
33903;DHT22;20194;50.950;5.346;2023-02-22T17:19:24;10.70;64.30
33903;DHT22;20194;50.950;5.346;2023-02-22T17:21:50;10.60;64.60
33903;DHT22;20194;50.950;5.346;2023-02-22T17:24:18;10.70;63.20
33903;DHT22;20194;50.950;5.346;2023-02-22T17:26:48;10.70;63.60
33903;DHT22;20194;50.950;5.346;2023-02-22T17:29:14;10.70;63.90
33903;DHT22;20194;50.950;5.346;2023-02-22T17:31:42;10.60;64.10
33903;DHT22;20194;50.950;5.346;2023-02-22T17:34:08;10.50;63.20
33903;DHT22;20194;50.950;5.346;2023-02-22T17:36:34;10.50;63.60
33903;DHT22;20194;50.950;5.346;2023-02-22T17:39:03;10.50;65.40
33903;DHT22;20194;50.950;5.346;2023-02-22T17:41:30;10.40;65.00
33903;DHT22;20194;50.950;5.346;2023-02-22T17:43:56;10.30;66.60
33903;DHT22;20194;50.950;5.346;2023-02-22T17:46:24;10.40;66.60
33903;DHT22;20194;50.950;5.346;2023-02-22T17:48:50;10.30;66.60
33903;DHT22;20194;50.950;5.346;2023-02-22T17:51:21;10.30;67.00
33903;DHT22;20194;50.950;5.346;2023-02-22T17:53:47;10.30;66.80
33903;DHT22;20194;50.950;5.346;2023-02-22T17:56:15;10.40;67.20
33903;DHT22;20194;50.950;5.346;2023-02-22T17:58:46;10.40;66.40
33903;DHT22;20194;50.950;5.346;2023-02-22T18:03:45;10.40;66.90
33903;DHT22;20194;50.950;5.346;2023-02-22T18:06:16;10.40;65.70
33903;DHT22;20194;50.950;5.346;2023-02-22T18:08:41;10.40;66.10
33903;DHT22;20194;50.950;5.346;2023-02-22T18:11:07;10.40;66.30
33903;DHT22;20194;50.950;5.346;2023-02-22T18:13:33;10.40;66.50
33903;DHT22;20194;50.950;5.346;2023-02-22T18:15:58;10.50;65.60
33903;DHT22;20194;50.950;5.346;2023-02-22T18:18:24;10.50;64.60
33903;DHT22;20194;50.950;5.346;2023-02-22T18:20:51;10.40;65.80
33903;DHT22;20194;50.950;5.346;2023-02-22T18:23:23;10.40;66.40
33903;DHT22;20194;50.950;5.346;2023-02-22T18:25:52;10.40;66.80
33903;DHT22;20194;50.950;5.346;2023-02-22T18:28:19;10.30;66.40
33903;DHT22;20194;50.950;5.346;2023-02-22T18:30:47;10.20;66.40
33903;DHT22;20194;50.950;5.346;2023-02-22T18:33:13;10.30;67.20
33903;DHT22;20194;50.950;5.346;2023-02-22T18:35:43;10.30;66.50
33903;DHT22;20194;50.950;5.346;2023-02-22T18:38:09;10.30;66.20
33903;DHT22;20194;50.950;5.346;2023-02-22T18:43:23;10.30;66.80
33903;DHT22;20194;50.950;5.346;2023-02-22T18:45:49;10.30;65.70
33903;DHT22;20194;50.950;5.346;2023-02-22T18:48:15;10.30;66.40